sensor_id;sensor_type;location;lat;lon;timestamp;pressure;altitude;pressure_sealevel;temperature;humidity
9423;BME280;65863;49.506;10.400;2023-02-19T00:01:09;98397.88;;;7.65;93.45
9423;BME280;65863;49.506;10.400;2023-02-19T00:04:01;98384.84;;;7.49;93.38
9423;BME280;65863;49.506;10.400;2023-02-19T00:06:46;98397.59;;;7.69;93.47
9423;BME280;65863;49.506;10.400;2023-02-19T00:09:30;98389.16;;;7.50;93.33
9423;BME280;65863;49.506;10.400;2023-02-19T00:12:14;98368.25;;;7.32;93.71
9423;BME280;65863;49.506;10.400;2023-02-19T00:14:58;98381.19;;;7.35;93.97
9423;BME280;65863;49.506;10.400;2023-02-19T00:17:42;98371.06;;;7.32;94.40
9423;BME280;65863;49.506;10.400;2023-02-19T00:20:26;98368.13;;;7.18;94.35
9423;BME280;65863;49.506;10.400;2023-02-19T00:23:10;98390.03;;;7.39;94.82
9423;BME280;65863;49.506;10.400;2023-02-19T00:25:54;98399.47;;;7.36;95.18
9423;BME280;65863;49.506;10.400;2023-02-19T00:28:38;98375.44;;;7.21;95.40
9423;BME280;65863;49.506;10.400;2023-02-19T00:31:25;98390.59;;;7.32;95.54
9423;BME280;65863;49.506;10.400;2023-02-19T00:34:10;98361.59;;;7.10;95.82
9423;BME280;65863;49.506;10.400;2023-02-19T00:36:55;98316.91;;;6.85;96.11
9423;BME280;65863;49.506;10.400;2023-02-19T00:39:39;98368.59;;;7.22;96.23
9423;BME280;65863;49.506;10.400;2023-02-19T00:42:23;98372.09;;;7.29;96.35
9423;BME280;65863;49.506;10.400;2023-02-19T00:45:08;98366.78;;;7.25;96.89
9423;BME280;65863;49.506;10.400;2023-02-19T00:47:52;98351.38;;;7.18;96.48
9423;BME280;65863;49.506;10.400;2023-02-19T00:50:36;98359.88;;;7.32;96.72
9423;BME280;65863;49.506;10.400;2023-02-19T00:53:20;98349.56;;;7.21;97.15
9423;BME280;65863;49.506;10.400;2023-02-19T00:56:05;98323.56;;;7.07;97.34
9423;BME280;65863;49.506;10.400;2023-02-19T00:58:50;98332.66;;;7.13;97.12
9423;BME280;65863;49.506;10.400;2023-02-19T01:01:34;98355.56;;;7.31;97.26
9423;BME280;65863;49.506;10.400;2023-02-19T01:04:18;98323.22;;;7.16;97.32
9423;BME280;65863;49.506;10.400;2023-02-19T01:07:02;98334.28;;;7.28;97.38
9423;BME280;65863;49.506;10.400;2023-02-19T01:09:46;98340.63;;;7.28;97.68
9423;BME280;65863;49.506;10.400;2023-02-19T01:12:30;98303.00;;;7.04;97.50
9423;BME280;65863;49.506;10.400;2023-02-19T01:15:14;98326.22;;;7.18;97.71
9423;BME280;65863;49.506;10.400;2023-02-19T01:17:58;98302.56;;;7.00;97.77
9423;BME280;65863;49.506;10.400;2023-02-19T01:20:43;98309.06;;;7.09;97.58
9423;BME280;65863;49.506;10.400;2023-02-19T01:23:27;98326.81;;;7.11;97.74
9423;BME280;65863;49.506;10.400;2023-02-19T01:26:17;98345.19;;;7.26;97.51
9423;BME280;65863;49.506;10.400;2023-02-19T01:29:01;98311.84;;;7.09;97.68
9423;BME280;65863;49.506;10.400;2023-02-19T01:31:45;98320.59;;;7.24;97.66
9423;BME280;65863;49.506;10.400;2023-02-19T01:34:29;98304.94;;;7.15;97.41
9423;BME280;65863;49.506;10.400;2023-02-19T01:37:16;98256.91;;;6.98;97.52
9423;BME280;65863;49.506;10.400;2023-02-19T01:40:00;98287.50;;;7.09;97.66
9423;BME280;65863;49.506;10.400;2023-02-19T01:42:44;98282.50;;;7.02;97.82
9423;BME280;65863;49.506;10.400;2023-02-19T01:45:28;98307.22;;;7.17;97.66
9423;BME280;65863;49.506;10.400;2023-02-19T01:48:32;98300.88;;;7.16;97.52
9423;BME280;65863;49.506;10.400;2023-02-19T01:51:18;98274.94;;;6.97;97.96
9423;BME280;65863;49.506;10.400;2023-02-19T01:54:04;98303.78;;;7.05;97.79
9423;BME280;65863;49.506;10.400;2023-02-19T01:56:50;98275.50;;;6.89;97.95
9423;BME280;65863;49.506;10.400;2023-02-19T01:59:34;98307.00;;;7.15;97.91
9423;BME280;65863;49.506;10.400;2023-02-19T02:02:18;98293.84;;;7.10;97.82
9423;BME280;65863;49.506;10.400;2023-02-19T02:05:02;98320.38;;;7.22;97.70
9423;BME280;65863;49.506;10.400;2023-02-19T02:07:46;98293.09;;;7.09;97.57
9423;BME280;65863;49.506;10.400;2023-02-19T02:10:50;98278.66;;;7.05;97.50
9423;BME280;65863;49.506;10.400;2023-02-19T02:13:37;98262.19;;;7.01;97.39
9423;BME280;65863;49.506;10.400;2023-02-19T02:16:42;98256.38;;;6.99;97.26
9423;BME280;65863;49.506;10.400;2023-02-19T02:19:43;98283.13;;;7.14;96.94
9423;BME280;65863;49.506;10.400;2023-02-19T02:23:24;98239.22;;;6.89;97.04
9423;BME280;65863;49.506;10.400;2023-02-19T02:32:05;98262.38;;;7.09;97.09
9423;BME280;65863;49.506;10.400;2023-02-19T02:35:09;98257.59;;;7.04;96.94
9423;BME280;65863;49.506;10.400;2023-02-19T02:38:00;98252.38;;;6.95;97.05
9423;BME280;65863;49.506;10.400;2023-02-19T02:40:45;98265.13;;;7.15;96.46
9423;BME280;65863;49.506;10.400;2023-02-19T02:43:31;98271.31;;;7.27;96.96
9423;BME280;65863;49.506;10.400;2023-02-19T02:46:20;98240.63;;;7.02;96.64
9423;BME280;65863;49.506;10.400;2023-02-19T02:49:17;98254.69;;;7.15;96.62
9423;BME280;65863;49.506;10.400;2023-02-19T02:52:02;98268.06;;;7.22;96.27
9423;BME280;65863;49.506;10.400;2023-02-19T02:55:09;98250.16;;;7.12;96.00
9423;BME280;65863;49.506;10.400;2023-02-19T02:57:54;98255.97;;;7.14;96.10
9423;BME280;65863;49.506;10.400;2023-02-19T03:00:41;98239.06;;;7.06;96.39
9423;BME280;65863;49.506;10.400;2023-02-19T03:03:48;98250.84;;;7.18;96.31
9423;BME280;65863;49.506;10.400;2023-02-19T03:06:34;98237.25;;;7.09;96.09
9423;BME280;65863;49.506;10.400;2023-02-19T03:09:32;98254.63;;;7.21;95.70
9423;BME280;65863;49.506;10.400;2023-02-19T03:12:24;98218.53;;;7.04;95.46
9423;BME280;65863;49.506;10.400;2023-02-19T03:15:51;98227.88;;;7.06;95.61
9423;BME280;65863;49.506;10.400;2023-02-19T03:18:58;98231.44;;;7.07;95.29
9423;BME280;65863;49.506;10.400;2023-02-19T03:22:05;98233.41;;;7.12;95.76
9423;BME280;65863;49.506;10.400;2023-02-19T03:24:59;98254.88;;;7.23;95.51
9423;BME280;65863;49.506;10.400;2023-02-19T03:28:05;98215.00;;;7.03;94.98
9423;BME280;65863;49.506;10.400;2023-02-19T03:30:52;98217.34;;;7.18;95.12
9423;BME280;65863;49.506;10.400;2023-02-19T03:33:39;98228.81;;;7.15;95.20
9423;BME280;65863;49.506;10.400;2023-02-19T03:36:28;98203.00;;;7.09;94.82
9423;BME280;65863;49.506;10.400;2023-02-19T03:39:19;98195.72;;;7.00;95.01
9423;BME280;65863;49.506;10.400;2023-02-19T03:48:13;98235.50;;;7.31;94.99
9423;BME280;65863;49.506;10.400;2023-02-19T03:51:33;98241.66;;;7.23;94.86
9423;BME280;65863;49.506;10.400;2023-02-19T03:54:38;98269.75;;;7.31;94.52
9423;BME280;65863;49.506;10.400;2023-02-19T03:57:32;98231.31;;;7.18;94.96
9423;BME280;65863;49.506;10.400;2023-02-19T04:00:31;98220.25;;;7.07;95.11
9423;BME280;65863;49.506;10.400;2023-02-19T04:03:27;98235.41;;;7.17;94.76
9423;BME280;65863;49.506;10.400;2023-02-19T04:06:16;98240.97;;;7.17;94.71
9423;BME280;65863;49.506;10.400;2023-02-19T04:09:07;98269.28;;;7.27;94.81
9423;BME280;65863;49.506;10.400;2023-02-19T04:11:55;98257.69;;;7.23;94.85
9423;BME280;65863;49.506;10.400;2023-02-19T04:14:55;98248.00;;;7.24;94.69
9423;BME280;65863;49.506;10.400;2023-02-19T04:17:45;98245.38;;;7.32;94.38
9423;BME280;65863;49.506;10.400;2023-02-19T04:20:36;98252.53;;;7.27;94.80
9423;BME280;65863;49.506;10.400;2023-02-19T04:23:23;98242.25;;;7.16;94.52
9423;BME280;65863;49.506;10.400;2023-02-19T04:26:10;98266.88;;;7.37;94.65
9423;BME280;65863;49.506;10.400;2023-02-19T04:28:55;98274.00;;;7.38;94.54
9423;BME280;65863;49.506;10.400;2023-02-19T04:31:39;98240.91;;;7.23;94.24
9423;BME280;65863;49.506;10.400;2023-02-19T04:34:23;98271.66;;;7.42;94.40
9423;BME280;65863;49.506;10.400;2023-02-19T04:37:07;98264.03;;;7.43;94.30
9423;BME280;65863;49.506;10.400;2023-02-19T04:39:51;98255.56;;;7.29;93.89
9423;BME280;65863;49.506;10.400;2023-02-19T04:42:35;98279.00;;;7.45;93.99
9423;BME280;65863;49.506;10.400;2023-02-19T04:45:19;98257.38;;;7.27;93.75
9423;BME280;65863;49.506;10.400;2023-02-19T04:48:04;98275.34;;;7.31;93.59
9423;BME280;65863;49.506;10.400;2023-02-19T04:50:48;98260.22;;;7.21;93.65
9423;BME280;65863;49.506;10.400;2023-02-19T04:53:32;98267.00;;;7.26;93.64
9423;BME280;65863;49.506;10.400;2023-02-19T04:56:17;98290.53;;;7.36;93.34
9423;BME280;65863;49.506;10.400;2023-02-19T04:59:01;98259.47;;;7.20;93.63
9423;BME280;65863;49.506;10.400;2023-02-19T05:01:45;98286.22;;;7.35;93.59
9423;BME280;65863;49.506;10.400;2023-02-19T05:04:30;98267.47;;;7.30;93.43
9423;BME280;65863;49.506;10.400;2023-02-19T05:07:13;98269.69;;;7.37;92.98
9423;BME280;65863;49.506;10.400;2023-02-19T05:09:58;98281.50;;;7.49;92.90
9423;BME280;65863;49.506;10.400;2023-02-19T05:12:42;98265.63;;;7.38;92.89
9423;BME280;65863;49.506;10.400;2023-02-19T05:15:26;98244.91;;;7.28;92.80
9423;BME280;65863;49.506;10.400;2023-02-19T05:18:10;98283.53;;;7.48;92.50
9423;BME280;65863;49.506;10.400;2023-02-19T05:20:56;98280.13;;;7.55;92.29
9423;BME280;65863;49.506;10.400;2023-02-19T05:23:40;98272.28;;;7.54;92.55
9423;BME280;65863;49.506;10.400;2023-02-19T05:26:25;98245.59;;;7.34;91.88
9423;BME280;65863;49.506;10.400;2023-02-19T05:29:09;98225.66;;;7.24;92.31
9423;BME280;65863;49.506;10.400;2023-02-19T05:31:53;98275.16;;;7.48;92.08
9423;BME280;65863;49.506;10.400;2023-02-19T05:34:37;98258.28;;;7.35;91.70
9423;BME280;65863;49.506;10.400;2023-02-19T05:37:21;98267.13;;;7.39;91.65
9423;BME280;65863;49.506;10.400;2023-02-19T05:40:05;98250.72;;;7.30;91.43
9423;BME280;65863;49.506;10.400;2023-02-19T05:42:49;98258.75;;;7.39;91.32
9423;BME280;65863;49.506;10.400;2023-02-19T05:45:34;98269.94;;;7.39;91.02
9423;BME280;65863;49.506;10.400;2023-02-19T05:48:18;98251.66;;;7.38;91.09
9423;BME280;65863;49.506;10.400;2023-02-19T05:51:04;98285.50;;;7.53;90.68
9423;BME280;65863;49.506;10.400;2023-02-19T05:53:49;98250.50;;;7.28;90.59
9423;BME280;65863;49.506;10.400;2023-02-19T05:56:40;98264.81;;;7.43;90.35
9423;BME280;65863;49.506;10.400;2023-02-19T05:59:25;98272.72;;;7.39;89.95
9423;BME280;65863;49.506;10.400;2023-02-19T06:02:12;98272.72;;;7.39;90.38
9423;BME280;65863;49.506;10.400;2023-02-19T06:04:55;98278.53;;;7.41;90.30
9423;BME280;65863;49.506;10.400;2023-02-19T06:07:40;98281.84;;;7.39;90.13
9423;BME280;65863;49.506;10.400;2023-02-19T06:10:25;98282.69;;;7.34;90.14
9423;BME280;65863;49.506;10.400;2023-02-19T06:13:11;98309.59;;;7.56;89.95
9423;BME280;65863;49.506;10.400;2023-02-19T06:15:55;98280.63;;;7.35;89.99
9423;BME280;65863;49.506;10.400;2023-02-19T06:18:39;98293.28;;;7.41;89.70
9423;BME280;65863;49.506;10.400;2023-02-19T06:21:23;98291.22;;;7.42;89.97
9423;BME280;65863;49.506;10.400;2023-02-19T06:24:08;98306.78;;;7.56;89.51
9423;BME280;65863;49.506;10.400;2023-02-19T06:26:52;98288.22;;;7.40;89.53
9423;BME280;65863;49.506;10.400;2023-02-19T06:29:36;98282.16;;;7.36;89.59
9423;BME280;65863;49.506;10.400;2023-02-19T06:32:20;98288.53;;;7.31;90.08
9423;BME280;65863;49.506;10.400;2023-02-19T06:35:05;98275.69;;;7.22;89.78
9423;BME280;65863;49.506;10.400;2023-02-19T06:37:48;98292.56;;;7.35;89.84
9423;BME280;65863;49.506;10.400;2023-02-19T06:40:32;98300.41;;;7.37;90.01
9423;BME280;65863;49.506;10.400;2023-02-19T06:43:16;98300.19;;;7.35;90.02
9423;BME280;65863;49.506;10.400;2023-02-19T06:46:02;98336.31;;;7.52;90.15
9423;BME280;65863;49.506;10.400;2023-02-19T06:48:47;98312.16;;;7.30;89.83
9423;BME280;65863;49.506;10.400;2023-02-19T06:51:31;98330.72;;;7.52;89.75
9423;BME280;65863;49.506;10.400;2023-02-19T06:54:15;98333.75;;;7.54;89.84
9423;BME280;65863;49.506;10.400;2023-02-19T06:56:59;98286.47;;;7.12;89.65
9423;BME280;65863;49.506;10.400;2023-02-19T06:59:44;98353.59;;;7.50;90.01
9423;BME280;65863;49.506;10.400;2023-02-19T07:02:28;98329.84;;;7.38;89.82
9423;BME280;65863;49.506;10.400;2023-02-19T07:05:12;98358.84;;;7.35;90.10
9423;BME280;65863;49.506;10.400;2023-02-19T07:07:57;98337.91;;;7.47;90.43
9423;BME280;65863;49.506;10.400;2023-02-19T07:10:41;98331.19;;;7.31;90.90
9423;BME280;65863;49.506;10.400;2023-02-19T07:13:26;98351.88;;;7.47;90.37
9423;BME280;65863;49.506;10.400;2023-02-19T07:16:11;98334.22;;;7.33;90.86
9423;BME280;65863;49.506;10.400;2023-02-19T07:18:57;98352.56;;;7.53;91.04
9423;BME280;65863;49.506;10.400;2023-02-19T07:21:42;98360.19;;;7.53;90.50
9423;BME280;65863;49.506;10.400;2023-02-19T07:24:26;98333.69;;;7.35;90.57
9423;BME280;65863;49.506;10.400;2023-02-19T07:27:09;98365.72;;;7.58;90.68
9423;BME280;65863;49.506;10.400;2023-02-19T07:29:53;98369.09;;;7.51;90.33
9423;BME280;65863;49.506;10.400;2023-02-19T07:32:40;98341.97;;;7.46;90.70
9423;BME280;65863;49.506;10.400;2023-02-19T07:35:24;98352.09;;;7.49;90.46
9423;BME280;65863;49.506;10.400;2023-02-19T07:38:08;98385.97;;;7.65;90.18
9423;BME280;65863;49.506;10.400;2023-02-19T07:40:54;98373.25;;;7.64;90.34
9423;BME280;65863;49.506;10.400;2023-02-19T07:43:39;98373.44;;;7.71;90.08
9423;BME280;65863;49.506;10.400;2023-02-19T07:46:23;98308.50;;;7.40;89.71
9423;BME280;65863;49.506;10.400;2023-02-19T07:49:07;98362.09;;;7.64;89.60
9423;BME280;65863;49.506;10.400;2023-02-19T07:51:51;98360.47;;;7.74;89.47
9423;BME280;65863;49.506;10.400;2023-02-19T07:54:35;98373.19;;;7.69;89.02
9423;BME280;65863;49.506;10.400;2023-02-19T07:57:19;98397.94;;;7.84;89.26
9423;BME280;65863;49.506;10.400;2023-02-19T08:00:04;98269.56;;;6.99;88.86
9423;BME280;65863;49.506;10.400;2023-02-19T08:02:56;98391.22;;;7.74;89.12
9423;BME280;65863;49.506;10.400;2023-02-19T08:05:43;98404.00;;;7.88;89.10
9423;BME280;65863;49.506;10.400;2023-02-19T08:08:27;98340.28;;;7.37;88.60
9423;BME280;65863;49.506;10.400;2023-02-19T08:11:11;98391.78;;;7.67;89.02
9423;BME280;65863;49.506;10.400;2023-02-19T08:14:14;98389.22;;;7.69;88.75
9423;BME280;65863;49.506;10.400;2023-02-19T08:16:58;98391.28;;;7.68;88.73
9423;BME280;65863;49.506;10.400;2023-02-19T08:19:43;98400.50;;;7.82;88.57
9423;BME280;65863;49.506;10.400;2023-02-19T08:22:27;98374.31;;;7.61;88.52
9423;BME280;65863;49.506;10.400;2023-02-19T08:25:11;98389.25;;;7.88;88.10
9423;BME280;65863;49.506;10.400;2023-02-19T08:27:55;98411.44;;;8.05;87.69
9423;BME280;65863;49.506;10.400;2023-02-19T08:30:41;98421.56;;;8.08;87.73
9423;BME280;65863;49.506;10.400;2023-02-19T08:33:28;98437.91;;;8.04;87.90
9423;BME280;65863;49.506;10.400;2023-02-19T08:36:13;98419.03;;;7.85;87.45
9423;BME280;65863;49.506;10.400;2023-02-19T08:38:57;98451.50;;;8.13;87.64
9423;BME280;65863;49.506;10.400;2023-02-19T08:41:41;98458.03;;;8.21;87.29
9423;BME280;65863;49.506;10.400;2023-02-19T08:44:25;98442.66;;;8.09;87.04
9423;BME280;65863;49.506;10.400;2023-02-19T08:47:09;98426.94;;;8.06;86.97
9423;BME280;65863;49.506;10.400;2023-02-19T08:49:53;98427.06;;;8.14;86.41
9423;BME280;65863;49.506;10.400;2023-02-19T08:52:37;98435.66;;;8.21;86.22
9423;BME280;65863;49.506;10.400;2023-02-19T08:55:21;98432.53;;;8.25;85.96
9423;BME280;65863;49.506;10.400;2023-02-19T08:58:05;98433.97;;;8.13;85.67
9423;BME280;65863;49.506;10.400;2023-02-19T09:00:49;98440.44;;;8.02;85.78
9423;BME280;65863;49.506;10.400;2023-02-19T09:03:33;98440.16;;;8.05;86.04
9423;BME280;65863;49.506;10.400;2023-02-19T09:06:18;98434.44;;;8.17;85.62
9423;BME280;65863;49.506;10.400;2023-02-19T09:09:03;98459.63;;;8.36;85.64
9423;BME280;65863;49.506;10.400;2023-02-19T09:11:47;98468.34;;;8.32;85.24
9423;BME280;65863;49.506;10.400;2023-02-19T09:14:31;98451.22;;;8.36;84.74
9423;BME280;65863;49.506;10.400;2023-02-19T09:17:17;98488.16;;;8.53;84.50
9423;BME280;65863;49.506;10.400;2023-02-19T09:20:01;98476.56;;;8.49;84.22
9423;BME280;65863;49.506;10.400;2023-02-19T09:22:46;98486.63;;;8.58;83.99
9423;BME280;65863;49.506;10.400;2023-02-19T09:25:30;98505.28;;;8.69;83.61
9423;BME280;65863;49.506;10.400;2023-02-19T09:28:14;98480.47;;;8.59;83.47
9423;BME280;65863;49.506;10.400;2023-02-19T09:31:11;98480.25;;;8.57;82.96
9423;BME280;65863;49.506;10.400;2023-02-19T09:33:55;98509.53;;;8.56;82.12
9423;BME280;65863;49.506;10.400;2023-02-19T09:36:39;98481.69;;;8.45;81.99
9423;BME280;65863;49.506;10.400;2023-02-19T09:39:23;98475.50;;;8.52;82.19
9423;BME280;65863;49.506;10.400;2023-02-19T09:42:37;98510.53;;;8.78;82.27
9423;BME280;65863;49.506;10.400;2023-02-19T09:45:24;98515.59;;;8.79;81.96
9423;BME280;65863;49.506;10.400;2023-02-19T09:48:10;98490.00;;;8.51;81.95
9423;BME280;65863;49.506;10.400;2023-02-19T09:50:56;98491.22;;;8.55;81.64
9423;BME280;65863;49.506;10.400;2023-02-19T09:53:45;98495.00;;;8.58;81.78
9423;BME280;65863;49.506;10.400;2023-02-19T09:56:32;98501.66;;;8.55;81.92
9423;BME280;65863;49.506;10.400;2023-02-19T09:59:23;98498.94;;;8.68;81.82
9423;BME280;65863;49.506;10.400;2023-02-19T10:02:15;98500.00;;;8.65;82.01
9423;BME280;65863;49.506;10.400;2023-02-19T10:05:01;98502.03;;;8.65;81.83
9423;BME280;65863;49.506;10.400;2023-02-19T10:07:48;98511.94;;;8.66;81.80
9423;BME280;65863;49.506;10.400;2023-02-19T10:10:34;98516.56;;;8.63;81.92
9423;BME280;65863;49.506;10.400;2023-02-19T10:13:50;98525.25;;;8.78;82.06
9423;BME280;65863;49.506;10.400;2023-02-19T10:16:39;98524.59;;;8.72;81.91
9423;BME280;65863;49.506;10.400;2023-02-19T10:19:26;98482.94;;;8.44;81.96
9423;BME280;65863;49.506;10.400;2023-02-19T10:22:10;98527.78;;;8.82;81.71
9423;BME280;65863;49.506;10.400;2023-02-19T10:24:56;98507.72;;;8.78;81.88
9423;BME280;65863;49.506;10.400;2023-02-19T10:27:41;98527.31;;;8.78;81.62
9423;BME280;65863;49.506;10.400;2023-02-19T10:30:34;98521.63;;;8.65;81.56
9423;BME280;65863;49.506;10.400;2023-02-19T10:33:18;98526.63;;;8.72;81.85
9423;BME280;65863;49.506;10.400;2023-02-19T10:36:05;98566.44;;;9.03;81.59
9423;BME280;65863;49.506;10.400;2023-02-19T10:38:50;98559.81;;;9.06;81.44
9423;BME280;65863;49.506;10.400;2023-02-19T10:41:39;98543.44;;;8.72;81.22
9423;BME280;65863;49.506;10.400;2023-02-19T10:44:28;98547.97;;;8.75;81.23
9423;BME280;65863;49.506;10.400;2023-02-19T10:47:18;98569.56;;;8.55;80.96
9423;BME280;65863;49.506;10.400;2023-02-19T10:50:03;98582.03;;;8.79;81.19
9423;BME280;65863;49.506;10.400;2023-02-19T10:52:52;98597.22;;;8.84;81.68
9423;BME280;65863;49.506;10.400;2023-02-19T10:55:36;98613.63;;;8.74;82.02
9423;BME280;65863;49.506;10.400;2023-02-19T10:58:24;98612.63;;;8.71;82.37
9423;BME280;65863;49.506;10.400;2023-02-19T11:01:21;98607.94;;;8.60;83.14
9423;BME280;65863;49.506;10.400;2023-02-19T11:04:16;98594.84;;;8.44;84.11
9423;BME280;65863;49.506;10.400;2023-02-19T11:07:14;98571.63;;;8.24;84.81
9423;BME280;65863;49.506;10.400;2023-02-19T11:10:00;98603.56;;;8.35;85.86
9423;BME280;65863;49.506;10.400;2023-02-19T11:12:47;98590.28;;;8.16;86.23
9423;BME280;65863;49.506;10.400;2023-02-19T11:15:33;98582.13;;;8.18;86.89
9423;BME280;65863;49.506;10.400;2023-02-19T11:18:31;98585.03;;;8.32;86.78
9423;BME280;65863;49.506;10.400;2023-02-19T11:21:27;98607.53;;;8.51;87.05
9423;BME280;65863;49.506;10.400;2023-02-19T11:24:30;98616.16;;;8.53;86.96
9423;BME280;65863;49.506;10.400;2023-02-19T11:27:22;98617.38;;;8.57;86.82
9423;BME280;65863;49.506;10.400;2023-02-19T11:33:24;98623.09;;;8.71;85.99
9423;BME280;65863;49.506;10.400;2023-02-19T12:00:25;98640.41;;;9.51;81.15
9423;BME280;65863;49.506;10.400;2023-02-19T12:06:25;98633.75;;;9.35;79.63
9423;BME280;65863;49.506;10.400;2023-02-19T12:09:37;98628.69;;;9.53;79.16
9423;BME280;65863;49.506;10.400;2023-02-19T12:12:55;98644.28;;;9.48;78.47
9423;BME280;65863;49.506;10.400;2023-02-19T12:16:04;98633.53;;;9.52;78.37
9423;BME280;65863;49.506;10.400;2023-02-19T12:19:11;98627.38;;;9.54;78.51
9423;BME280;65863;49.506;10.400;2023-02-19T12:28:20;98604.75;;;9.33;78.39
9423;BME280;65863;49.506;10.400;2023-02-19T12:31:35;98561.91;;;9.00;78.31
9423;BME280;65863;49.506;10.400;2023-02-19T12:34:46;98606.59;;;9.30;78.15
9423;BME280;65863;49.506;10.400;2023-02-19T12:37:46;98607.94;;;9.23;77.92
9423;BME280;65863;49.506;10.400;2023-02-19T12:44:00;98628.44;;;8.93;79.06
9423;BME280;65863;49.506;10.400;2023-02-19T12:46:58;98634.69;;;8.81;80.18
9423;BME280;65863;49.506;10.400;2023-02-19T12:49:49;98616.78;;;8.65;81.51
9423;BME280;65863;49.506;10.400;2023-02-19T12:52:40;98604.47;;;8.49;82.55
9423;BME280;65863;49.506;10.400;2023-02-19T12:55:30;98630.38;;;8.55;83.32
9423;BME280;65863;49.506;10.400;2023-02-19T12:58:29;98625.47;;;8.31;84.43
9423;BME280;65863;49.506;10.400;2023-02-19T13:01:21;98650.66;;;8.31;85.41
9423;BME280;65863;49.506;10.400;2023-02-19T13:04:32;98666.91;;;8.38;86.64
9423;BME280;65863;49.506;10.400;2023-02-19T13:10:43;98650.03;;;8.49;88.50
9423;BME280;65863;49.506;10.400;2023-02-19T13:13:36;98595.97;;;8.05;89.04
9423;BME280;65863;49.506;10.400;2023-02-19T13:16:25;98621.34;;;8.37;89.57
9423;BME280;65863;49.506;10.400;2023-02-19T13:19:15;98640.28;;;8.25;89.53
9423;BME280;65863;49.506;10.400;2023-02-19T13:22:06;98667.91;;;8.35;89.16
9423;BME280;65863;49.506;10.400;2023-02-19T13:25:17;98612.59;;;7.91;89.53
9423;BME280;65863;49.506;10.400;2023-02-19T13:28:20;98600.28;;;7.75;89.79
9423;BME280;65863;49.506;10.400;2023-02-19T13:31:45;98644.88;;;7.92;89.96
9423;BME280;65863;49.506;10.400;2023-02-19T13:37:37;98620.94;;;7.61;90.41
9423;BME280;65863;49.506;10.400;2023-02-19T13:40:36;98619.41;;;7.66;90.64
9423;BME280;65863;49.506;10.400;2023-02-19T13:43:25;98660.66;;;7.90;90.88
9423;BME280;65863;49.506;10.400;2023-02-19T13:46:13;98601.03;;;7.40;90.46
9423;BME280;65863;49.506;10.400;2023-02-19T13:58:36;98649.84;;;7.69;90.32
9423;BME280;65863;49.506;10.400;2023-02-19T14:10:49;98589.06;;;7.81;89.78
9423;BME280;65863;49.506;10.400;2023-02-19T14:19:44;98689.91;;;8.19;88.43
9423;BME280;65863;49.506;10.400;2023-02-19T14:25:52;98663.94;;;7.94;88.49
9423;BME280;65863;49.506;10.400;2023-02-19T14:28:43;98673.25;;;8.02;88.31
9423;BME280;65863;49.506;10.400;2023-02-19T14:31:38;98659.31;;;7.97;88.48
9423;BME280;65863;49.506;10.400;2023-02-19T14:34:23;98639.34;;;8.17;88.67
9423;BME280;65863;49.506;10.400;2023-02-19T14:37:18;98675.00;;;8.72;88.67
9423;BME280;65863;49.506;10.400;2023-02-19T14:40:04;98648.03;;;8.93;88.23
9423;BME280;65863;49.506;10.400;2023-02-19T14:42:50;98674.56;;;9.11;87.32
9423;BME280;65863;49.506;10.400;2023-02-19T14:45:41;98675.78;;;9.16;86.81
9423;BME280;65863;49.506;10.400;2023-02-19T14:48:32;98669.31;;;9.21;86.10
9423;BME280;65863;49.506;10.400;2023-02-19T14:51:30;98698.41;;;9.18;85.28
9423;BME280;65863;49.506;10.400;2023-02-19T14:54:25;98686.31;;;9.04;84.45
9423;BME280;65863;49.506;10.400;2023-02-19T14:57:24;98705.31;;;8.92;84.02
9423;BME280;65863;49.506;10.400;2023-02-19T15:00:34;98717.50;;;8.95;83.93
9423;BME280;65863;49.506;10.400;2023-02-19T15:06:15;98662.78;;;8.39;84.43
9423;BME280;65863;49.506;10.400;2023-02-19T15:09:04;98712.66;;;8.71;84.72
9423;BME280;65863;49.506;10.400;2023-02-19T15:11:50;98692.22;;;8.51;85.27
9423;BME280;65863;49.506;10.400;2023-02-19T15:14:34;98676.25;;;8.40;85.47
9423;BME280;65863;49.506;10.400;2023-02-19T15:17:26;98674.69;;;8.51;85.44
9423;BME280;65863;49.506;10.400;2023-02-19T15:20:17;98690.97;;;8.77;85.64
9423;BME280;65863;49.506;10.400;2023-02-19T15:23:04;98663.66;;;8.58;85.42
9423;BME280;65863;49.506;10.400;2023-02-19T15:25:49;98664.41;;;8.59;85.11
9423;BME280;65863;49.506;10.400;2023-02-19T15:28:33;98635.41;;;8.32;84.68
9423;BME280;65863;49.506;10.400;2023-02-19T15:31:18;98687.09;;;8.80;84.73
9423;BME280;65863;49.506;10.400;2023-02-19T15:34:02;98696.66;;;8.66;84.24
9423;BME280;65863;49.506;10.400;2023-02-19T15:36:46;98684.06;;;8.53;84.29
9423;BME280;65863;49.506;10.400;2023-02-19T15:39:40;98699.91;;;8.45;84.19
9423;BME280;65863;49.506;10.400;2023-02-19T15:42:31;98685.16;;;8.39;83.91
9423;BME280;65863;49.506;10.400;2023-02-19T15:45:22;98694.63;;;8.36;84.16
9423;BME280;65863;49.506;10.400;2023-02-19T15:48:12;98702.34;;;8.24;84.66
9423;BME280;65863;49.506;10.400;2023-02-19T15:51:01;98673.78;;;8.01;84.56
9423;BME280;65863;49.506;10.400;2023-02-19T15:53:56;98705.66;;;8.22;84.95
9423;BME280;65863;49.506;10.400;2023-02-19T15:56:44;98707.41;;;8.25;84.96
9423;BME280;65863;49.506;10.400;2023-02-19T15:59:37;98684.41;;;8.08;84.63
9423;BME280;65863;49.506;10.400;2023-02-19T16:02:24;98712.53;;;8.21;84.79
9423;BME280;65863;49.506;10.400;2023-02-19T16:05:14;98733.88;;;8.24;85.15
9423;BME280;65863;49.506;10.400;2023-02-19T16:08:15;98729.34;;;8.16;85.10
9423;BME280;65863;49.506;10.400;2023-02-19T16:11:03;98705.28;;;8.07;85.13
9423;BME280;65863;49.506;10.400;2023-02-19T16:13:49;98731.09;;;8.19;85.83
9423;BME280;65863;49.506;10.400;2023-02-19T16:16:38;98737.78;;;8.10;86.14
9423;BME280;65863;49.506;10.400;2023-02-19T16:19:25;98702.09;;;7.86;86.19
9423;BME280;65863;49.506;10.400;2023-02-19T16:22:12;98751.97;;;8.18;86.36
9423;BME280;65863;49.506;10.400;2023-02-19T16:25:02;98760.34;;;8.18;86.61
9423;BME280;65863;49.506;10.400;2023-02-19T16:27:47;98702.38;;;7.82;86.99
9423;BME280;65863;49.506;10.400;2023-02-19T16:30:31;98721.34;;;7.95;87.38
9423;BME280;65863;49.506;10.400;2023-02-19T16:33:35;98747.44;;;8.09;87.83
9423;BME280;65863;49.506;10.400;2023-02-19T16:39:14;98736.69;;;7.83;89.18